Time;durP1;ratioP1;P1;durP2;ratioP2;P2;SDS_P1;SDS_P2;PMS_P1;PMS_P2;Temp;Humidity;BMP_temperature;BMP_pressure;BME280_temperature;BME280_humidity;BME280_pressure;Samples;Min_cycle;Max_cycle;Signal;HPM_P1;HPM_P2
2022/04/25 00:00:04;;;;;;;;;;;;;;;16.39;49.16;98433.78;4488943;31;32370;-69
2022/04/25 00:02:38;;;;;;;;;;;;;;;16.46;49.04;98432.03;4466626;32;34168;-68
2022/04/25 00:05:06;;;;;;;;;;;;;;;16.61;48.37;98433.91;4480930;31;34506;-68
2022/04/25 00:07:34;;;;;;;;;;;;;;;16.50;48.71;98436.06;4476636;31;33708;-68
2022/04/25 00:10:03;;;;;;;;;;;;;;;16.54;48.42;98431.94;4481592;31;34198;-68
2022/04/25 00:12:31;;;;;;;;;;;;;;;16.51;48.58;98437.72;4488801;31;34240;-68
2022/04/25 00:14:59;;;;;;;;;;;;;;;16.39;48.78;98435.66;4473371;32;34266;-69
2022/04/25 00:17:26;;;;;;;;;;;;;;;16.21;49.22;98430.56;4484028;31;33769;-68
2022/04/25 00:19:54;;;;;;;;;;;;;;;16.24;49.02;98427.50;4483964;32;34385;-69
2022/04/25 00:22:23;;;;;;;;;;;;;;;16.03;49.68;98431.75;4493621;31;34255;-68
2022/04/25 00:24:50;;;;;;;;;;;;;;;16.14;49.56;98426.94;4496416;31;34423;-67
2022/04/25 00:27:18;;;;;;;;;;;;;;;16.12;49.58;98423.59;4475662;32;33588;-69
2022/04/25 00:29:51;;;;;;;;;;;;;;;16.11;49.57;98420.03;4493692;31;32844;-68
2022/04/25 00:32:19;;;;;;;;;;;;;;;16.07;49.54;98416.88;4488048;31;34342;-69
2022/04/25 00:34:46;;;;;;;;;;;;;;;16.00;49.56;98426.72;4491887;31;34346;-69
2022/04/25 00:37:15;;;;;;;;;;;;;;;16.10;49.24;98421.06;4485331;31;34267;-72
2022/04/25 00:39:43;;;;;;;;;;;;;;;15.94;49.75;98418.50;4483629;31;33929;-69
2022/04/25 00:42:11;;;;;;;;;;;;;;;16.08;49.26;98420.41;4485694;31;34414;-69
2022/04/25 00:44:38;;;;;;;;;;;;;;;15.95;49.81;98422.87;4489761;31;33541;-69
2022/04/25 00:47:07;;;;;;;;;;;;;;;15.91;49.84;98418.88;4492413;31;33348;-69
2022/04/25 00:49:35;;;;;;;;;;;;;;;15.94;49.66;98422.03;4474919;31;33865;-71
2022/04/25 00:52:02;;;;;;;;;;;;;;;15.82;50.12;98418.91;4471006;31;34373;-69
2022/04/25 00:54:32;;;;;;;;;;;;;;;15.96;49.60;98417.31;4472099;31;32775;-71
2022/04/25 00:57:01;;;;;;;;;;;;;;;15.93;49.55;98422.25;4493667;31;33758;-72
2022/04/25 00:59:29;;;;;;;;;;;;;;;15.82;49.85;98423.47;4488877;31;35010;-69
2022/04/25 01:01:57;;;;;;;;;;;;;;;15.50;50.61;98428.03;4473478;31;33340;-69
2022/04/25 01:04:25;;;;;;;;;;;;;;;15.83;50.09;98430.56;4480909;31;34028;-70
2022/04/25 01:06:52;;;;;;;;;;;;;;;15.72;50.44;98434.50;4496423;31;33149;-69
2022/04/25 01:09:20;;;;;;;;;;;;;;;15.94;49.93;98437.41;4489343;31;34023;-69
2022/04/25 01:11:48;;;;;;;;;;;;;;;15.83;50.22;98435.97;4485591;31;34565;-70
2022/04/25 01:14:17;;;;;;;;;;;;;;;15.75;50.76;98433.31;4490665;31;33229;-68
2022/04/25 01:16:45;;;;;;;;;;;;;;;15.94;50.14;98437.41;4495743;31;32009;-69
2022/04/25 01:19:13;;;;;;;;;;;;;;;16.03;49.80;98437.16;4484129;31;35056;-69
2022/04/25 01:21:42;;;;;;;;;;;;;;;16.06;48.97;98441.34;4488563;31;33749;-70
2022/04/25 01:27:16;;;;;;;;;;;;;;;15.86;48.70;98441.00;4486488;31;32611;-71
2022/04/25 01:29:47;;;;;;;;;;;;;;;15.47;49.45;98441.03;4486213;31;33298;-70
2022/04/25 01:32:15;;;;;;;;;;;;;;;15.10;50.54;98432.66;4490896;31;33342;-70
2022/04/25 01:34:44;;;;;;;;;;;;;;;15.17;50.14;98434.66;4494831;31;33899;-71
2022/04/25 01:37:13;;;;;;;;;;;;;;;15.03;50.01;98437.06;4486002;31;34371;-70
2022/04/25 01:39:42;;;;;;;;;;;;;;;14.95;50.18;98437.09;4491498;31;31361;-69
2022/04/25 01:42:10;;;;;;;;;;;;;;;14.93;49.87;98433.75;4484879;31;34319;-69
2022/04/25 01:44:39;;;;;;;;;;;;;;;15.09;49.74;98430.16;4486194;31;35226;-68
2022/04/25 01:47:08;;;;;;;;;;;;;;;15.11;49.32;98425.41;4490730;31;34571;-70
2022/04/25 01:49:36;;;;;;;;;;;;;;;15.12;49.26;98427.09;4483854;32;33184;-71
2022/04/25 01:52:05;;;;;;;;;;;;;;;14.96;49.40;98427.16;4486229;31;33966;-69
2022/04/25 01:54:33;;;;;;;;;;;;;;;14.85;49.66;98425.69;4483112;32;35810;-72
2022/04/25 01:57:01;;;;;;;;;;;;;;;14.08;52.15;98426.16;4486551;31;34364;-69
2022/04/25 01:59:30;;;;;;;;;;;;;;;14.05;52.88;98428.34;4500048;31;35212;-67
2022/04/25 02:02:02;;;;;;;;;;;;;;;14.36;52.39;98423.94;4484284;31;33090;-69
2022/04/25 02:04:31;;;;;;;;;;;;;;;14.28;52.25;98415.87;4472948;31;33884;-68
2022/04/25 02:07:06;;;;;;;;;;;;;;;14.29;52.52;98424.81;4481158;31;32408;-68
2022/04/25 02:09:38;;;;;;;;;;;;;;;14.11;53.17;98419.59;4483269;31;34349;-66
2022/04/25 02:12:07;;;;;;;;;;;;;;;14.64;52.11;98421.72;4479672;31;34129;-68
2022/04/25 02:14:40;;;;;;;;;;;;;;;14.49;52.98;98418.03;4492425;31;34273;-69
2022/04/25 02:17:09;;;;;;;;;;;;;;;14.59;52.59;98415.16;4481414;31;34681;-67
2022/04/25 02:19:39;;;;;;;;;;;;;;;14.24;54.00;98417.22;4481694;31;34110;-66
2022/04/25 02:22:08;;;;;;;;;;;;;;;14.28;53.80;98409.66;4487327;31;33187;-67
2022/04/25 02:24:40;;;;;;;;;;;;;;;13.82;54.94;98422.78;4490654;31;34195;-66
2022/04/25 02:27:09;;;;;;;;;;;;;;;14.51;52.74;98413.34;4488062;31;32537;-67
2022/04/25 02:29:39;;;;;;;;;;;;;;;13.47;55.45;98414.00;4483758;31;33869;-67
2022/04/25 02:32:12;;;;;;;;;;;;;;;13.58;55.32;98420.91;4484734;31;33340;-67
2022/04/25 02:34:42;;;;;;;;;;;;;;;13.58;55.68;98424.47;4481882;31;34489;-66
2022/04/25 02:37:10;;;;;;;;;;;;;;;13.52;55.81;98434.03;4481594;31;32404;-66
2022/04/25 02:39:40;;;;;;;;;;;;;;;13.89;54.57;98438.09;4478990;31;34306;-65
2022/04/25 02:42:08;;;;;;;;;;;;;;;13.58;55.42;98442.41;4488345;31;34135;-66
2022/04/25 02:44:38;;;;;;;;;;;;;;;13.08;56.73;98445.97;4485164;31;34483;-65
2022/04/25 02:47:14;;;;;;;;;;;;;;;13.52;55.57;98441.25;4481005;31;33438;-65
2022/04/25 02:49:43;;;;;;;;;;;;;;;13.69;54.90;98450.19;4489372;31;33085;-66
2022/04/25 02:52:13;;;;;;;;;;;;;;;13.37;55.79;98464.38;4484834;31;34233;-66
2022/04/25 02:54:42;;;;;;;;;;;;;;;13.59;55.39;98462.94;4485654;31;33497;-67
2022/04/25 02:57:12;;;;;;;;;;;;;;;13.06;56.54;98475.66;4485138;31;34120;-68
2022/04/25 02:59:41;;;;;;;;;;;;;;;13.36;56.45;98478.84;4495191;31;33071;-67
2022/04/25 03:02:10;;;;;;;;;;;;;;;13.82;54.84;98479.28;4481783;31;34195;-67
2022/04/25 03:04:40;;;;;;;;;;;;;;;13.45;55.08;98488.59;4471585;32;34196;-75
2022/04/25 03:07:09;;;;;;;;;;;;;;;13.85;54.16;98482.47;4482048;31;33357;-67
2022/04/25 03:09:38;;;;;;;;;;;;;;;13.45;55.10;98489.47;4484986;31;32937;-68
2022/04/25 03:12:06;;;;;;;;;;;;;;;13.13;55.99;98495.53;4482683;31;32505;-66
2022/04/25 03:14:35;;;;;;;;;;;;;;;13.73;54.53;98495.38;4481064;31;33333;-67
2022/04/25 03:17:05;;;;;;;;;;;;;;;13.87;53.33;98499.28;4484946;31;32314;-69
2022/04/25 03:19:35;;;;;;;;;;;;;;;13.86;53.50;98505.66;4484835;31;32971;-68
2022/04/25 03:22:04;;;;;;;;;;;;;;;14.19;52.94;98506.56;4487969;31;33160;-68
2022/04/25 03:24:40;;;;;;;;;;;;;;;14.12;52.77;98500.13;4467835;32;34124;-67
2022/04/25 03:27:08;;;;;;;;;;;;;;;13.81;53.54;98496.44;4488346;31;33348;-69
2022/04/25 03:29:38;;;;;;;;;;;;;;;14.03;53.47;98494.91;4486594;31;35189;-67
2022/04/25 03:32:07;;;;;;;;;;;;;;;14.28;53.09;98503.84;4489323;31;34289;-66
2022/04/25 03:34:37;;;;;;;;;;;;;;;13.84;54.13;98506.84;4480654;31;33256;-67
2022/04/25 03:37:11;;;;;;;;;;;;;;;14.50;52.42;98505.00;4482274;31;32471;-67
2022/04/25 03:39:42;;;;;;;;;;;;;;;14.23;53.19;98504.34;4484493;31;32968;-66
2022/04/25 03:42:15;;;;;;;;;;;;;;;14.72;51.74;98500.81;4498278;31;35409;-68
2022/04/25 03:44:45;;;;;;;;;;;;;;;14.44;52.45;98495.75;4481539;31;34103;-68
2022/04/25 03:47:13;;;;;;;;;;;;;;;14.53;51.84;98496.62;4482112;31;34197;-69
2022/04/25 03:49:43;;;;;;;;;;;;;;;14.43;52.41;98499.47;4481829;31;32966;-69
2022/04/25 03:52:13;;;;;;;;;;;;;;;14.16;53.33;98495.28;4481750;31;34418;-71
2022/04/25 03:57:29;;;;;;;;;;;;;;;13.78;54.31;98489.53;4491527;31;32501;-69
2022/04/25 03:59:58;;;;;;;;;;;;;;;13.33;55.58;98487.22;4487654;31;34254;-70
2022/04/25 04:02:26;;;;;;;;;;;;;;;13.41;55.64;98493.44;4497753;31;35257;-71
2022/04/25 04:04:54;;;;;;;;;;;;;;;13.32;55.92;98486.38;4488032;31;34554;-70
2022/04/25 04:07:22;;;;;;;;;;;;;;;13.72;54.56;98493.72;4495580;31;33745;-70
2022/04/25 04:09:51;;;;;;;;;;;;;;;14.08;53.80;98496.09;4485909;31;34641;-69
2022/04/25 04:12:20;;;;;;;;;;;;;;;13.62;55.01;98511.00;4484845;31;34095;-70
2022/04/25 04:14:48;;;;;;;;;;;;;;;14.31;53.06;98509.72;4481326;31;34075;-72
2022/04/25 04:17:17;;;;;;;;;;;;;;;14.38;52.31;98510.75;4490276;31;33745;-72
2022/04/25 04:19:47;;;;;;;;;;;;;;;14.51;52.29;98510.28;4482416;31;34010;-72
2022/04/25 04:22:15;;;;;;;;;;;;;;;14.83;51.31;98514.75;4483268;31;34304;-72
2022/04/25 04:24:48;;;;;;;;;;;;;;;14.67;51.70;98512.09;4493755;31;33416;-71
2022/04/25 04:27:23;;;;;;;;;;;;;;;15.22;50.38;98508.59;4481667;31;32542;-73
2022/04/25 04:29:51;;;;;;;;;;;;;;;15.60;49.43;98516.81;4481215;31;33840;-69
2022/04/25 04:32:21;;;;;;;;;;;;;;;15.72;49.13;98510.03;4484136;31;33784;-70
2022/04/25 04:34:50;;;;;;;;;;;;;;;15.89;48.88;98505.41;4485536;31;34007;-71
2022/04/25 04:37:18;;;;;;;;;;;;;;;15.82;49.02;98516.03;4483452;31;33103;-70
2022/04/25 04:39:47;;;;;;;;;;;;;;;16.18;48.14;98515.50;4480754;31;33946;-70
2022/04/25 04:42:16;;;;;;;;;;;;;;;16.24;48.13;98522.00;4483805;31;34169;-70
2022/04/25 04:44:45;;;;;;;;;;;;;;;16.39;48.26;98516.66;4492561;31;34135;-71
2022/04/25 04:47:15;;;;;;;;;;;;;;;16.60;47.11;98521.38;4496862;31;33403;-71
2022/04/25 04:49:45;;;;;;;;;;;;;;;16.57;47.20;98524.44;4485753;31;32833;-70
2022/04/25 04:52:14;;;;;;;;;;;;;;;16.64;47.29;98522.69;4491120;31;34667;-69
2022/04/25 04:54:44;;;;;;;;;;;;;;;16.61;47.45;98531.16;4499235;31;34646;-70
2022/04/25 04:57:13;;;;;;;;;;;;;;;16.86;46.90;98531.81;4484120;31;33492;-69
2022/04/25 04:59:42;;;;;;;;;;;;;;;17.09;46.30;98529.03;4481781;31;33237;-68
2022/04/25 05:02:10;;;;;;;;;;;;;;;17.13;46.38;98535.72;4485222;31;34221;-71
2022/04/25 05:04:40;;;;;;;;;;;;;;;16.50;47.35;98537.81;4491371;31;34942;-68
2022/04/25 05:07:08;;;;;;;;;;;;;;;16.94;46.24;98537.94;4491550;31;33670;-69
2022/04/25 05:09:36;;;;;;;;;;;;;;;17.12;46.00;98534.06;4491155;31;34355;-68
2022/04/25 05:12:10;;;;;;;;;;;;;;;16.87;46.26;98536.19;4483081;31;34387;-69
2022/04/25 05:14:48;;;;;;;;;;;;;;;17.03;45.99;98532.47;4481472;31;33305;-69
2022/04/25 05:17:18;;;;;;;;;;;;;;;16.60;46.93;98540.28;4485944;31;32424;-68
2022/04/25 05:19:47;;;;;;;;;;;;;;;16.95;46.42;98546.88;4484867;31;34335;-69
2022/04/25 05:22:16;;;;;;;;;;;;;;;17.17;46.14;98546.00;4488043;31;34582;-69
2022/04/25 05:24:48;;;;;;;;;;;;;;;17.03;46.38;98544.13;4483067;32;33551;-69
2022/04/25 05:27:18;;;;;;;;;;;;;;;17.11;46.12;98544.03;4482487;31;32535;-68
2022/04/25 05:29:48;;;;;;;;;;;;;;;16.85;46.90;98543.63;4481413;31;33162;-71
2022/04/25 05:32:17;;;;;;;;;;;;;;;16.74;46.85;98547.59;4494461;31;33282;-69
2022/04/25 05:34:46;;;;;;;;;;;;;;;16.62;47.28;98549.03;4498395;31;35275;-69
2022/04/25 05:37:15;;;;;;;;;;;;;;;16.49;47.56;98549.66;4483843;31;32435;-69
2022/04/25 05:39:45;;;;;;;;;;;;;;;16.29;48.44;98549.31;4496953;31;33890;-69
2022/04/25 05:42:13;;;;;;;;;;;;;;;16.17;48.76;98546.19;4488884;31;35266;-71
2022/04/25 05:44:44;;;;;;;;;;;;;;;16.59;47.82;98544.84;4498357;31;34367;-70
2022/04/25 05:47:13;;;;;;;;;;;;;;;16.38;48.34;98550.09;4491018;31;34472;-69
2022/04/25 05:52:30;;;;;;;;;;;;;;;16.61;47.65;98558.19;4481642;31;35396;-68
2022/04/25 05:54:59;;;;;;;;;;;;;;;16.54;48.10;98555.38;4482416;31;35110;-69
2022/04/25 05:57:28;;;;;;;;;;;;;;;15.54;50.75;98556.12;4485687;31;33643;-69
2022/04/25 06:00:02;;;;;;;;;;;;;;;15.36;51.34;98564.44;4485526;31;33178;-69
2022/04/25 06:02:43;;;;;;;;;;;;;;;15.78;49.98;98557.06;4485904;31;33151;-69
2022/04/25 06:05:15;;;;;;;;;;;;;;;14.76;52.32;98556.00;4494596;31;34615;-68
2022/04/25 06:07:43;;;;;;;;;;;;;;;15.08;52.15;98553.25;4482129;32;32286;-70
2022/04/25 06:10:13;;;;;;;;;;;;;;;15.33;51.90;98561.25;4482547;31;33047;-69
2022/04/25 06:12:43;;;;;;;;;;;;;;;15.05;52.12;98555.44;4483731;31;34430;-69
2022/04/25 06:15:12;;;;;;;;;;;;;;;15.54;50.71;98555.31;4483100;31;33499;-70
2022/04/25 06:17:40;;;;;;;;;;;;;;;14.98;51.73;98560.69;4492541;31;33383;-69
2022/04/25 06:20:09;;;;;;;;;;;;;;;14.52;52.67;98557.72;4482078;31;34010;-70
2022/04/25 06:22:39;;;;;;;;;;;;;;;14.89;52.23;98561.72;4487942;31;34527;-71
2022/04/25 06:25:08;;;;;;;;;;;;;;;15.02;51.91;98562.00;4467552;31;34151;-70
2022/04/25 06:27:37;;;;;;;;;;;;;;;15.34;51.00;98554.84;4484520;31;33343;-70
2022/04/25 06:30:06;;;;;;;;;;;;;;;15.35;51.49;98556.56;4494848;31;32978;-70
2022/04/25 06:32:36;;;;;;;;;;;;;;;14.94;52.65;98555.81;4489182;31;34097;-71
2022/04/25 06:35:05;;;;;;;;;;;;;;;15.54;51.06;98550.75;4491207;31;34331;-70
2022/04/25 06:37:34;;;;;;;;;;;;;;;15.73;51.29;98563.00;4496336;31;34710;-70
2022/04/25 06:40:05;;;;;;;;;;;;;;;15.56;51.06;98564.88;4468931;32;35064;-71
2022/04/25 06:42:34;;;;;;;;;;;;;;;15.81;50.42;98567.50;4487343;31;35798;-70
2022/04/25 06:45:02;;;;;;;;;;;;;;;16.27;49.49;98565.66;4482952;31;33350;-71
2022/04/25 06:47:30;;;;;;;;;;;;;;;16.44;48.54;98568.28;4487981;31;33775;-69
2022/04/25 06:49:59;;;;;;;;;;;;;;;16.61;48.60;98564.41;4481159;31;35650;-70
2022/04/25 06:52:26;;;;;;;;;;;;;;;17.06;47.34;98564.53;4486151;31;33154;-71
2022/04/25 06:54:54;;;;;;;;;;;;;;;15.95;49.53;98574.81;4485248;31;34035;-69
2022/04/25 06:57:23;;;;;;;;;;;;;;;16.53;48.89;98578.84;4492689;31;33537;-68
2022/04/25 06:59:51;;;;;;;;;;;;;;;17.01;48.15;98581.28;4480081;31;34184;-64
2022/04/25 07:02:19;;;;;;;;;;;;;;;16.50;49.22;98581.91;4484543;31;34157;-68
2022/04/25 07:04:48;;;;;;;;;;;;;;;17.19;46.95;98580.94;4493739;31;34469;-71
2022/04/25 07:07:17;;;;;;;;;;;;;;;17.11;47.31;98586.44;4485182;31;32403;-68
2022/04/25 07:09:45;;;;;;;;;;;;;;;17.34;47.16;98587.22;4485373;31;33906;-71
2022/04/25 07:12:14;;;;;;;;;;;;;;;17.91;46.08;98596.50;4486021;31;33403;-69
2022/04/25 07:14:42;;;;;;;;;;;;;;;17.96;44.76;98590.53;4484582;31;34645;-69
2022/04/25 07:17:11;;;;;;;;;;;;;;;17.03;46.42;98595.47;4486111;31;33799;-69
2022/04/25 07:19:39;;;;;;;;;;;;;;;17.02;47.43;98599.22;4484583;31;34790;-68
2022/04/25 07:30:44;;;;;;;;;;;;;;;17.83;45.91;98591.22;4490610;31;33877;-68
2022/04/25 07:33:32;;;;;;;;;;;;;;;18.01;45.15;98588.09;4486209;31;32931;-67
2022/04/25 07:36:19;;;;;;;;;;;;;;;18.55;43.62;98590.34;4484562;31;35373;-69
2022/04/25 07:39:05;;;;;;;;;;;;;;;18.21;44.39;98591.03;4495944;31;32098;-69
2022/04/25 07:41:46;;;;;;;;;;;;;;;18.67;43.20;98593.38;4484223;32;34270;-69
2022/04/25 07:44:31;;;;;;;;;;;;;;;18.33;43.96;98598.47;4484029;32;33204;-68
2022/04/25 07:47:10;;;;;;;;;;;;;;;18.27;44.17;98604.66;4485122;31;33266;-68
2022/04/25 07:49:48;;;;;;;;;;;;;;;18.70;43.41;98601.13;4484315;31;34738;-68
2022/04/25 07:52:25;;;;;;;;;;;;;;;18.38;43.96;98608.72;4488901;31;32818;-68
2022/04/25 07:55:07;;;;;;;;;;;;;;;19.25;42.93;98611.19;4500217;31;35344;-67
2022/04/25 07:57:46;;;;;;;;;;;;;;;19.58;41.98;98607.84;4483207;31;33135;-71
2022/04/25 08:00:32;;;;;;;;;;;;;;;19.68;40.52;98608.38;4484191;31;34215;-70
2022/04/25 08:03:12;;;;;;;;;;;;;;;19.39;41.47;98611.25;4477210;31;35126;-69
2022/04/25 08:05:53;;;;;;;;;;;;;;;19.55;41.71;98602.84;4484360;31;33014;-69
2022/04/25 08:08:33;;;;;;;;;;;;;;;19.27;41.34;98605.56;4483280;31;35261;-69
2022/04/25 08:11:11;;;;;;;;;;;;;;;19.84;40.96;98609.03;4471649;31;33238;-69
2022/04/25 08:19:49;;;;;;;;;;;;;;;19.82;38.44;98600.28;4493534;31;35489;-71
2022/04/25 08:22:35;;;;;;;;;;;;;;;19.85;39.33;98608.03;4497372;31;32766;-69
2022/04/25 08:25:22;;;;;;;;;;;;;;;19.99;37.52;98607.03;4484818;31;35120;-69
2022/04/25 08:28:05;;;;;;;;;;;;;;;20.17;38.85;98604.59;4486832;31;34480;-69
2022/04/25 08:30:47;;;;;;;;;;;;;;;19.90;39.82;98610.94;4491564;31;34574;-69
2022/04/25 08:33:28;;;;;;;;;;;;;;;19.88;40.15;98615.75;4489366;31;33993;-69
2022/04/25 08:36:03;;;;;;;;;;;;;;;20.44;38.77;98613.63;4499847;31;33806;-68
2022/04/25 08:38:43;;;;;;;;;;;;;;;20.34;39.08;98613.22;4489444;31;33150;-69
2022/04/25 08:41:44;;;;;;;;;;;;;;;20.69;38.73;98622.09;4494130;31;33443;-71
2022/04/25 08:44:27;;;;;;;;;;;;;;;20.53;38.36;98627.09;4456400;32;33853;-68
2022/04/25 08:46:59;;;;;;;;;;;;;;;19.97;39.93;98623.53;4464799;32;32800;-68
2022/04/25 08:49:36;;;;;;;;;;;;;;;20.38;39.15;98628.03;4453268;32;33097;-68
2022/04/25 08:52:14;;;;;;;;;;;;;;;19.80;41.32;98637.63;4453782;32;32860;-68
2022/04/25 08:54:58;;;;;;;;;;;;;;;20.43;40.72;98628.28;4454060;32;33188;-69
2022/04/25 08:57:45;;;;;;;;;;;;;;;20.63;38.16;98633.78;4467108;32;32905;-67
2022/04/25 09:00:23;;;;;;;;;;;;;;;21.21;38.00;98627.75;4457409;32;33032;-67
2022/04/25 09:02:59;;;;;;;;;;;;;;;20.72;37.77;98637.16;4451302;32;32971;-67
2022/04/25 09:05:42;;;;;;;;;;;;;;;21.08;37.48;98625.03;4442493;32;32316;-67
2022/04/25 09:08:25;;;;;;;;;;;;;;;20.99;37.61;98632.56;4439633;32;32884;-67
2022/04/25 09:14:12;;;;;;;;;;;;;;;20.83;37.04;98643.84;4437631;32;34732;-67
2022/04/25 09:16:52;;;;;;;;;;;;;;;20.32;37.90;98638.91;4470699;32;33728;-69
2022/04/25 09:19:33;;;;;;;;;;;;;;;20.93;37.67;98647.03;4475685;32;33025;-67
2022/04/25 09:22:14;;;;;;;;;;;;;;;21.04;37.08;98640.94;4481402;32;32931;-67
2022/04/25 09:25:05;;;;;;;;;;;;;;;21.34;36.27;98649.50;4485803;32;33279;-67
2022/04/25 09:28:14;;;;;;;;;;;;;;;21.84;35.34;98643.59;4470855;32;32324;-68
2022/04/25 09:30:59;;;;;;;;;;;;;;;21.55;35.26;98653.94;4469143;32;32895;-70
2022/04/25 09:33:35;;;;;;;;;;;;;;;21.13;36.05;98658.75;4480350;32;33160;-67
2022/04/25 09:36:14;;;;;;;;;;;;;;;21.12;34.57;98648.91;4473124;32;33309;-70
2022/04/25 09:39:00;;;;;;;;;;;;;;;21.01;34.98;98665.84;4479280;32;34309;-67
2022/04/25 09:41:39;;;;;;;;;;;;;;;19.99;37.19;98673.03;4478863;32;34173;-70
2022/04/25 09:44:19;;;;;;;;;;;;;;;20.18;37.46;98665.19;4478360;32;33099;-67
2022/04/25 09:46:52;;;;;;;;;;;;;;;20.02;38.15;98664.50;4466241;32;32680;-67
2022/04/25 09:49:29;;;;;;;;;;;;;;;20.62;36.48;98663.91;4471841;32;32233;-67
2022/04/25 09:52:12;;;;;;;;;;;;;;;21.01;36.19;98668.56;4482785;32;32960;-68
2022/04/25 09:54:58;;;;;;;;;;;;;;;20.50;36.70;98677.22;4482049;32;33037;-68
2022/04/25 09:57:41;;;;;;;;;;;;;;;21.01;36.26;98673.19;4467554;32;34326;-68
2022/04/25 10:00:38;;;;;;;;;;;;;;;20.76;36.50;98675.66;4480597;31;32206;-69
2022/04/25 10:03:19;;;;;;;;;;;;;;;21.19;35.64;98667.97;4488613;31;34066;-67
2022/04/25 10:06:04;;;;;;;;;;;;;;;20.95;35.99;98680.28;4487193;31;33199;-69
2022/04/25 10:08:41;;;;;;;;;;;;;;;20.99;36.45;98675.25;4485006;31;34486;-68
2022/04/25 10:11:12;;;;;;;;;;;;;;;20.65;37.15;98685.25;4471751;31;32527;-69
2022/04/25 10:13:42;;;;;;;;;;;;;;;21.23;36.79;98688.25;4484086;31;35380;-68
2022/04/25 10:16:09;;;;;;;;;;;;;;;21.32;36.42;98676.13;4475214;31;33348;-70
2022/04/25 10:18:46;;;;;;;;;;;;;;;21.97;34.01;98684.44;4473177;32;33184;-70
2022/04/25 10:21:19;;;;;;;;;;;;;;;21.81;34.00;98687.59;4474723;31;32026;-68
2022/04/25 10:23:53;;;;;;;;;;;;;;;22.33;34.53;98691.25;4470830;32;32390;-67
2022/04/25 10:26:28;;;;;;;;;;;;;;;22.17;33.52;98684.38;4487181;31;34615;-68
2022/04/25 10:29:07;;;;;;;;;;;;;;;22.00;33.64;98684.00;4486002;31;34483;-67
2022/04/25 10:31:42;;;;;;;;;;;;;;;22.14;33.94;98686.69;4473256;32;32146;-70
2022/04/25 10:34:44;;;;;;;;;;;;;;;22.05;33.62;98689.66;4472324;31;33255;-70
2022/04/25 10:37:33;;;;;;;;;;;;;;;21.42;35.71;98685.78;4491192;31;34342;-70
2022/04/25 10:44:10;;;;;;;;;;;;;;;21.60;35.04;98692.25;4483932;32;34191;-69
2022/04/25 10:46:15;;;;;;;;;;;;;;;21.26;35.42;98698.72;4485798;31;33035;-69
2022/04/25 10:49:09;;;;;;;;;;;;;;;20.91;35.78;98701.62;4475863;31;33196;-69
2022/04/25 10:51:44;;;;;;;;;;;;;;;20.74;35.51;98710.34;4486297;31;34533;-69
2022/04/25 10:54:14;;;;;;;;;;;;;;;20.76;35.58;98708.28;4489545;31;33122;-68
2022/04/25 10:57:00;;;;;;;;;;;;;;;20.35;36.10;98718.16;4482572;31;34958;-69
2022/04/25 10:59:33;;;;;;;;;;;;;;;20.76;36.23;98717.25;4483456;31;34482;-68
2022/04/25 11:02:24;;;;;;;;;;;;;;;20.32;37.22;98721.28;4478378;31;33172;-69
2022/04/25 11:05:09;;;;;;;;;;;;;;;20.53;36.82;98712.19;4480355;31;33094;-69
2022/04/25 11:07:37;;;;;;;;;;;;;;;20.80;36.77;98724.00;4484251;31;32786;-69
2022/04/25 11:10:06;;;;;;;;;;;;;;;21.06;36.71;98723.19;4473411;31;34230;-68
2022/04/25 11:12:52;;;;;;;;;;;;;;;21.17;35.86;98716.31;4497595;31;33634;-71
2022/04/25 11:15:39;;;;;;;;;;;;;;;21.56;35.83;98717.38;4484071;31;33738;-70
2022/04/25 11:18:38;;;;;;;;;;;;;;;21.51;35.63;98728.06;4470078;32;32947;-69
2022/04/25 11:21:13;;;;;;;;;;;;;;;21.24;35.19;98741.63;4481350;32;35950;-69
2022/04/25 11:23:44;;;;;;;;;;;;;;;21.15;36.05;98741.00;4480492;31;34339;-69
2022/04/25 11:26:21;;;;;;;;;;;;;;;21.23;36.26;98747.28;4483466;31;32524;-69
2022/04/25 11:28:58;;;;;;;;;;;;;;;20.87;34.79;98740.31;4496672;31;34214;-68
2022/04/25 11:31:29;;;;;;;;;;;;;;;21.06;35.02;98738.66;4472875;31;33724;-68
2022/04/25 11:33:57;;;;;;;;;;;;;;;21.21;35.03;98736.59;4486265;31;34296;-68
2022/04/25 11:36:25;;;;;;;;;;;;;;;21.02;35.94;98742.84;4482744;31;33213;-69
2022/04/25 11:42:01;;;;;;;;;;;;;;;21.52;33.69;98754.25;4429034;32;33935;-69
2022/04/25 11:44:34;;;;;;;;;;;;;;;20.99;35.38;98751.41;4418643;32;34408;-70
2022/04/25 11:47:02;;;;;;;;;;;;;;;20.92;35.76;98762.28;4453357;31;33641;-68
2022/04/25 11:49:32;;;;;;;;;;;;;;;20.94;35.58;98754.78;4473138;31;35305;-71
2022/04/25 11:52:01;;;;;;;;;;;;;;;21.35;35.13;98764.72;4475347;31;33863;-70
2022/04/25 11:54:33;;;;;;;;;;;;;;;20.85;35.67;98764.16;4482160;31;34111;-69
2022/04/25 11:57:01;;;;;;;;;;;;;;;20.93;35.91;98764.81;4483470;31;33563;-71
2022/04/25 11:59:30;;;;;;;;;;;;;;;21.00;35.78;98766.72;4466361;31;33019;-70
2022/04/25 12:01:58;;;;;;;;;;;;;;;21.27;35.25;98765.72;4496805;31;34242;-69
2022/04/25 12:04:32;;;;;;;;;;;;;;;20.43;35.21;98764.16;4474387;31;33050;-71
2022/04/25 12:07:04;;;;;;;;;;;;;;;20.86;34.64;98769.38;4485905;31;33805;-69
2022/04/25 12:15:37;;;;;;;;;;;;;;;20.94;36.06;98766.47;4485465;31;33617;-70
2022/04/25 12:18:18;;;;;;;;;;;;;;;20.68;34.05;98764.53;4487945;31;32237;-71
2022/04/25 12:21:05;;;;;;;;;;;;;;;20.53;35.13;98769.25;4489954;31;34963;-70
2022/04/25 12:23:49;;;;;;;;;;;;;;;21.01;32.90;98774.66;4481266;31;33427;-71
2022/04/25 12:26:25;;;;;;;;;;;;;;;20.63;34.13;98769.72;4483517;31;35548;-71
2022/04/25 12:29:00;;;;;;;;;;;;;;;20.52;34.50;98764.88;4485759;31;33457;-69
2022/04/25 12:31:36;;;;;;;;;;;;;;;20.72;34.52;98773.09;4474565;31;33609;-70
2022/04/25 12:34:07;;;;;;;;;;;;;;;21.43;34.71;98786.28;4484224;31;34696;-72
2022/04/25 12:36:39;;;;;;;;;;;;;;;20.62;34.74;98775.38;4483328;31;33429;-71
2022/04/25 12:39:15;;;;;;;;;;;;;;;20.73;33.76;98782.09;4486156;31;32210;-71
2022/04/25 12:41:56;;;;;;;;;;;;;;;20.75;33.27;98777.31;4483202;31;35377;-69
2022/04/25 12:44:26;;;;;;;;;;;;;;;20.70;33.84;98786.06;4484031;31;34358;-71
2022/04/25 12:46:59;;;;;;;;;;;;;;;20.85;33.98;98775.88;4485727;31;34352;-70
2022/04/25 12:49:34;;;;;;;;;;;;;;;21.15;33.54;98772.78;4486177;31;33494;-71
2022/04/25 12:52:06;;;;;;;;;;;;;;;20.82;33.87;98767.28;4488467;31;32816;-70
2022/04/25 12:54:42;;;;;;;;;;;;;;;21.07;33.77;98778.44;4477761;31;33279;-70
2022/04/25 12:57:15;;;;;;;;;;;;;;;21.42;33.54;98790.06;4483751;32;34763;-70
2022/04/25 12:59:46;;;;;;;;;;;;;;;20.32;34.20;98797.37;4483066;31;34294;-71
2022/04/25 13:02:18;;;;;;;;;;;;;;;20.75;33.77;98793.62;4485177;31;32753;-70
2022/04/25 13:04:53;;;;;;;;;;;;;;;20.31;35.14;98797.56;4480959;32;33382;-72
2022/04/25 13:07:30;;;;;;;;;;;;;;;20.96;33.76;98800.78;4489350;31;34429;-68
2022/04/25 13:10:11;;;;;;;;;;;;;;;20.22;33.26;98802.28;4483198;31;34261;-68
2022/04/25 13:12:48;;;;;;;;;;;;;;;20.06;34.04;98805.31;4470440;31;32604;-69
2022/04/25 13:15:21;;;;;;;;;;;;;;;19.95;34.00;98790.44;4491236;31;33037;-68
2022/04/25 13:17:54;;;;;;;;;;;;;;;20.39;34.46;98779.22;4490898;31;35157;-68
2022/04/25 13:20:28;;;;;;;;;;;;;;;20.29;33.77;98791.47;4496869;31;33130;-68
2022/04/25 13:22:56;;;;;;;;;;;;;;;20.65;32.39;98796.72;4471468;32;32680;-67
2022/04/25 13:25:28;;;;;;;;;;;;;;;20.97;32.73;98803.31;4481120;31;33125;-67
2022/04/25 13:27:58;;;;;;;;;;;;;;;20.16;33.68;98797.66;4489003;31;34612;-68
2022/04/25 13:30:28;;;;;;;;;;;;;;;20.59;33.58;98800.25;4489662;31;33988;-68
2022/04/25 13:33:00;;;;;;;;;;;;;;;20.38;33.42;98796.53;4472318;31;33321;-66
2022/04/25 13:35:30;;;;;;;;;;;;;;;19.83;34.52;98792.84;4483226;31;33561;-69
2022/04/25 13:37:58;;;;;;;;;;;;;;;20.02;34.50;98799.47;4468070;32;33348;-70
2022/04/25 13:40:27;;;;;;;;;;;;;;;20.15;34.84;98802.25;4466286;32;31714;-71
2022/04/25 13:43:00;;;;;;;;;;;;;;;20.45;34.08;98804.75;4470765;31;33388;-69
2022/04/25 13:45:34;;;;;;;;;;;;;;;20.86;33.04;98801.19;4482420;31;33692;-68
2022/04/25 13:48:16;;;;;;;;;;;;;;;20.25;33.71;98810.88;4482703;31;34370;-69
2022/04/25 13:50:52;;;;;;;;;;;;;;;20.36;34.17;98811.37;4480038;31;32575;-68
2022/04/25 13:53:27;;;;;;;;;;;;;;;20.77;33.62;98807.84;4490936;31;33956;-69
2022/04/25 13:56:00;;;;;;;;;;;;;;;21.03;33.20;98802.50;4492526;31;33096;-69